Time;durP1;ratioP1;P1;durP2;ratioP2;P2;SDS_P1;SDS_P2;PMS_P1;PMS_P2;Temp;Humidity;BMP_temperature;BMP_pressure;BME280_temperature;BME280_humidity;BME280_pressure;Samples;Min_cycle;Max_cycle;Signal;HPM_P1;HPM_P2
2020/12/20 00:00:28;;;;;;;170.00;39.35;;;2.90;86.70;;;;;;5056568;28;20036;-77
2020/12/20 00:02:56;;;;;;;132.70;38.50;;;2.90;87.10;;;;;;5056674;28;20051;-77
2020/12/20 00:05:24;;;;;;;153.55;39.83;;;2.90;86.90;;;;;;5056601;28;20018;-77
2020/12/20 00:07:51;;;;;;;212.30;44.55;;;2.80;87.00;;;;;;5056445;28;20024;-77
2020/12/20 00:10:17;;;;;;;187.88;48.72;;;2.80;87.10;;;;;;5056444;28;20375;-78
2020/12/20 00:12:44;;;;;;;240.48;52.35;;;2.80;86.90;;;;;;5056600;28;20049;-77
2020/12/20 00:15:09;;;;;;;292.15;60.03;;;2.80;86.90;;;;;;5056403;28;20031;-77
2020/12/20 00:17:35;;;;;;;444.77;64.70;;;2.80;87.10;;;;;;5056409;28;20025;-77
2020/12/20 00:20:06;;;;;;;287.67;59.03;;;2.90;87.00;;;;;;5056173;28;20104;-77
2020/12/20 00:22:31;;;;;;;253.75;53.25;;;2.80;87.70;;;;;;5054899;28;20378;-77
2020/12/20 00:24:57;;;;;;;209.60;48.72;;;2.80;87.70;;;;;;5056150;28;20032;-77
2020/12/20 00:27:24;;;;;;;193.10;44.25;;;2.70;88.00;;;;;;5056127;28;20025;-77
2020/12/20 00:29:50;;;;;;;170.90;40.42;;;2.70;87.80;;;;;;5056140;28;20057;-77
2020/12/20 00:32:16;;;;;;;142.90;36.20;;;2.80;87.70;;;;;;5056128;28;20021;-77
2020/12/20 00:34:42;;;;;;;187.20;39.20;;;2.80;87.60;;;;;;5056158;28;20485;-77
2020/12/20 00:37:09;;;;;;;178.45;40.17;;;2.80;87.60;;;;;;5055845;28;20044;-77
2020/12/20 00:39:35;;;;;;;163.48;41.72;;;2.80;87.80;;;;;;5055799;28;20043;-77
2020/12/20 00:42:03;;;;;;;138.50;34.17;;;2.70;87.80;;;;;;5055935;28;20043;-77
2020/12/20 00:44:30;;;;;;;159.52;36.45;;;2.70;87.40;;;;;;5055860;28;20087;-77
2020/12/20 00:46:57;;;;;;;149.95;35.85;;;2.70;87.60;;;;;;5054959;28;20100;-77
2020/12/20 00:49:24;;;;;;;175.85;38.72;;;2.70;87.60;;;;;;5054814;28;20017;-77
2020/12/20 00:51:50;;;;;;;158.05;36.75;;;2.70;88.10;;;;;;5055975;28;20021;-77
2020/12/20 00:54:16;;;;;;;130.43;33.47;;;2.70;88.00;;;;;;5054584;28;20028;-77
2020/12/20 00:56:42;;;;;;;113.88;32.15;;;2.70;87.70;;;;;;5055951;28;20017;-77
2020/12/20 00:59:08;;;;;;;128.15;32.67;;;2.70;87.60;;;;;;5055677;28;20049;-77
2020/12/20 01:01:34;;;;;;;141.45;34.47;;;2.80;87.30;;;;;;5055246;28;20029;-77
2020/12/20 01:03:59;;;;;;;177.38;39.78;;;2.80;87.80;;;;;;5055746;28;20391;-77
2020/12/20 01:06:25;;;;;;;173.63;36.13;;;2.80;88.00;;;;;;5055790;28;20096;-77
2020/12/20 01:08:51;;;;;;;111.60;29.20;;;2.70;87.90;;;;;;5055852;28;20877;-77
2020/12/20 01:11:18;;;;;;;116.22;29.65;;;2.70;87.50;;;;;;5055773;28;20143;-77
2020/12/20 01:13:50;;;;;;;184.32;35.85;;;2.80;87.40;;;;;;5054435;28;20112;-77
2020/12/20 01:16:21;;;;;;;121.55;31.85;;;2.80;87.70;;;;;;5056001;28;20024;-77
2020/12/20 01:18:47;;;;;;;175.93;37.15;;;2.80;87.70;;;;;;5055574;28;20032;-77
2020/12/20 01:21:13;;;;;;;116.03;27.65;;;2.70;88.20;;;;;;5055781;28;20029;-77
2020/12/20 01:23:39;;;;;;;183.10;38.10;;;2.70;87.70;;;;;;5055453;28;20025;-77
2020/12/20 01:26:05;;;;;;;129.63;32.80;;;2.70;88.50;;;;;;5054191;28;20463;-77
2020/12/20 01:28:31;;;;;;;138.52;33.28;;;2.70;88.30;;;;;;5055278;28;20032;-77
2020/12/20 01:30:58;;;;;;;128.77;32.13;;;2.70;87.90;;;;;;5054063;28;20554;-77
2020/12/20 01:33:23;;;;;;;120.68;29.25;;;2.70;87.70;;;;;;5055492;28;20075;-77
2020/12/20 01:35:50;;;;;;;122.47;32.58;;;2.70;88.10;;;;;;5055211;28;20036;-77
2020/12/20 01:38:16;;;;;;;192.60;36.58;;;2.70;88.30;;;;;;5055028;28;20047;-77
2020/12/20 01:40:48;;;;;;;201.02;37.92;;;2.70;88.60;;;;;;5055025;28;20074;-77
2020/12/20 01:43:14;;;;;;;130.63;33.55;;;2.60;88.90;;;;;;5055423;28;20044;-77
2020/12/20 01:45:40;;;;;;;127.32;28.25;;;2.60;89.50;;;;;;5055073;28;20467;-77
2020/12/20 01:48:07;;;;;;;174.35;33.65;;;2.60;88.90;;;;;;5054988;28;20052;-77
2020/12/20 01:50:33;;;;;;;122.20;28.30;;;2.60;88.90;;;;;;5053822;28;20033;-77
2020/12/20 01:52:59;;;;;;;132.63;30.95;;;2.60;89.10;;;;;;5053684;28;20494;-77
2020/12/20 01:55:26;;;;;;;135.90;31.98;;;2.60;89.00;;;;;;5055162;28;20032;-77
2020/12/20 01:57:53;;;;;;;109.18;25.40;;;2.60;89.30;;;;;;5053438;28;20428;-77
2020/12/20 02:00:18;;;;;;;142.63;31.52;;;2.60;88.90;;;;;;5053513;28;20029;-77
2020/12/20 02:02:44;;;;;;;161.40;31.65;;;2.70;88.50;;;;;;5053479;28;20025;-77
2020/12/20 02:05:10;;;;;;;180.10;34.65;;;2.60;88.70;;;;;;5053448;28;20025;-77
2020/12/20 02:07:36;;;;;;;118.13;28.08;;;2.60;89.00;;;;;;5053656;28;20455;-77
2020/12/20 02:10:02;;;;;;;135.10;29.40;;;2.60;88.90;;;;;;5054507;28;20032;-77
2020/12/20 02:12:28;;;;;;;151.30;33.30;;;2.70;89.10;;;;;;5053307;28;20374;-77
2020/12/20 02:14:55;;;;;;;150.93;31.00;;;2.70;89.00;;;;;;5054470;28;20029;-77
2020/12/20 02:17:21;;;;;;;134.35;32.03;;;2.60;88.90;;;;;;5053117;28;20055;-77
2020/12/20 02:19:46;;;;;;;123.43;30.85;;;2.70;89.00;;;;;;5054674;28;20021;-77
2020/12/20 02:22:13;;;;;;;169.30;33.38;;;2.60;89.20;;;;;;5054269;28;20021;-77
2020/12/20 02:24:39;;;;;;;168.75;32.85;;;2.60;89.10;;;;;;5054401;28;20021;-77
2020/12/20 02:27:05;;;;;;;196.38;34.78;;;2.60;89.40;;;;;;5054689;28;20043;-77
2020/12/20 02:29:31;;;;;;;144.48;30.73;;;2.60;88.90;;;;;;5052860;28;20079;-77
2020/12/20 02:31:58;;;;;;;155.52;32.03;;;2.70;89.10;;;;;;5054365;28;20463;-77
2020/12/20 02:34:24;;;;;;;134.05;31.60;;;2.60;89.50;;;;;;5054141;28;20027;-77
2020/12/20 02:36:50;;;;;;;132.30;29.35;;;2.60;89.40;;;;;;5054158;28;20017;-77
2020/12/20 02:39:16;;;;;;;129.35;28.48;;;2.70;89.30;;;;;;5054046;28;20071;-77
2020/12/20 02:41:42;;;;;;;178.35;33.97;;;2.70;89.20;;;;;;5052660;28;20112;-77
2020/12/20 02:44:08;;;;;;;154.93;32.58;;;2.60;89.70;;;;;;5054065;28;20025;-77
2020/12/20 02:46:33;;;;;;;116.30;28.80;;;2.60;89.80;;;;;;5054327;28;20371;-77
2020/12/20 02:49:00;;;;;;;146.85;33.38;;;2.60;89.30;;;;;;5052516;28;20024;-77
2020/12/20 02:51:27;;;;;;;155.75;32.08;;;2.60;89.70;;;;;;5053911;28;20059;-77
2020/12/20 02:53:54;;;;;;;174.07;31.23;;;2.60;89.90;;;;;;5053768;28;20025;-77
2020/12/20 02:56:19;;;;;;;140.85;30.67;;;2.60;89.70;;;;;;5052855;28;20486;-77
2020/12/20 02:58:49;;;;;;;205.82;38.78;;;2.60;89.70;;;;;;5053878;28;20049;-77
2020/12/20 03:01:15;;;;;;;130.15;31.25;;;2.50;90.20;;;;;;5053693;28;20029;-77
2020/12/20 03:03:41;;;;;;;163.35;30.33;;;2.50;90.20;;;;;;5052366;28;20036;-77
2020/12/20 03:06:07;;;;;;;156.88;31.90;;;2.50;90.10;;;;;;5053697;28;20021;-77
2020/12/20 03:08:33;;;;;;;166.05;32.38;;;2.50;90.00;;;;;;5053590;28;20032;-77
2020/12/20 03:10:59;;;;;;;195.38;33.40;;;2.50;90.00;;;;;;5052301;28;20475;-77
2020/12/20 03:13:24;;;;;;;105.13;23.27;;;2.60;89.70;;;;;;5052187;28;20039;-77
2020/12/20 03:15:50;;;;;;;181.32;30.02;;;2.60;89.90;;;;;;5054112;28;20051;-77
2020/12/20 03:18:16;;;;;;;298.10;39.08;;;2.60;89.30;;;;;;5053446;28;20100;-77
2020/12/20 03:20:41;;;;;;;194.43;32.72;;;2.50;90.20;;;;;;5053691;28;20052;-77
2020/12/20 03:23:07;;;;;;;155.20;31.05;;;2.50;90.10;;;;;;5052941;28;20025;-78
2020/12/20 03:25:33;;;;;;;164.00;29.98;;;2.50;90.20;;;;;;5052138;28;20035;-77
2020/12/20 03:27:59;;;;;;;311.58;42.95;;;2.50;90.20;;;;;;5052074;28;20031;-78
2020/12/20 03:30:27;;;;;;;144.90;31.02;;;2.50;90.60;;;;;;5052780;28;20443;-78
2020/12/20 03:32:52;;;;;;;257.48;38.72;;;2.40;90.40;;;;;;5052135;28;20162;-78
2020/12/20 03:35:18;;;;;;;176.65;30.63;;;2.40;90.40;;;;;;5053333;28;20025;-77
2020/12/20 03:37:52;;;;;;;221.77;37.90;;;2.50;90.20;;;;;;5053620;28;20077;-77
2020/12/20 03:40:20;;;;;;;125.43;31.15;;;2.50;90.50;;;;;;5053276;28;20116;-77
2020/12/20 03:42:46;;;;;;;131.63;30.20;;;2.40;90.20;;;;;;5053638;28;20021;-77
2020/12/20 03:45:16;;;;;;;157.63;32.90;;;2.50;90.10;;;;;;5053054;28;20021;-77
2020/12/20 03:47:43;;;;;;;173.40;34.22;;;2.50;90.40;;;;;;5053629;28;20021;-77
2020/12/20 03:50:09;;;;;;;125.75;30.52;;;2.50;90.20;;;;;;5053245;28;20025;-77
2020/12/20 03:52:35;;;;;;;117.28;30.52;;;2.50;90.20;;;;;;5053278;28;20498;-77
2020/12/20 03:55:01;;;;;;;174.27;33.42;;;2.50;90.30;;;;;;5053174;28;20064;-77
2020/12/20 03:57:27;;;;;;;97.28;27.17;;;2.50;90.20;;;;;;5053319;28;20442;-77
2020/12/20 03:59:53;;;;;;;110.15;29.40;;;2.50;90.20;;;;;;5052874;28;20080;-77
2020/12/20 04:02:19;;;;;;;119.35;27.20;;;2.50;90.20;;;;;;5053410;28;20039;-77
2020/12/20 04:04:45;;;;;;;114.68;26.70;;;2.50;90.10;;;;;;5053055;28;20494;-77
2020/12/20 04:07:11;;;;;;;106.40;28.25;;;2.50;90.00;;;;;;5053095;28;20379;-77
2020/12/20 04:09:36;;;;;;;102.80;24.77;;;2.60;90.00;;;;;;5052970;28;20021;-77
2020/12/20 04:12:03;;;;;;;133.82;28.55;;;2.60;89.90;;;;;;5051818;28;20028;-77
2020/12/20 04:14:29;;;;;;;92.28;25.50;;;2.60;89.90;;;;;;5053350;28;20108;-77
2020/12/20 04:16:55;;;;;;;107.20;24.38;;;2.60;89.70;;;;;;5052883;28;20040;-77
2020/12/20 04:19:20;;;;;;;77.20;23.98;;;2.60;89.80;;;;;;5051672;28;20108;-77
2020/12/20 04:21:46;;;;;;;238.85;36.08;;;2.60;89.60;;;;;;5052882;28;20416;-77
2020/12/20 04:24:12;;;;;;;160.60;34.05;;;2.60;90.10;;;;;;5052824;28;20026;-77
2020/12/20 04:26:38;;;;;;;149.23;31.10;;;2.50;90.10;;;;;;5052625;28;20486;-77
2020/12/20 04:29:03;;;;;;;129.55;27.98;;;2.50;90.00;;;;;;5053148;28;20021;-77
2020/12/20 04:31:29;;;;;;;118.13;26.77;;;2.50;90.00;;;;;;5053397;28;20025;-77
2020/12/20 04:33:55;;;;;;;134.52;27.75;;;2.60;90.00;;;;;;5051514;28;20467;-77
2020/12/20 04:36:21;;;;;;;188.10;30.73;;;2.50;89.80;;;;;;5055283;28;20032;-77
2020/12/20 04:38:46;;;;;;;148.60;30.67;;;2.60;90.00;;;;;;5056251;28;20032;-77
2020/12/20 04:41:13;;;;;;;137.68;29.67;;;2.60;90.10;;;;;;5056206;28;20035;-77
2020/12/20 04:43:39;;;;;;;108.68;28.02;;;2.50;90.00;;;;;;5056249;28;20024;-77
2020/12/20 04:46:05;;;;;;;168.38;27.08;;;2.60;89.90;;;;;;5056476;28;20025;-77
2020/12/20 04:48:39;;;;;;;139.75;30.50;;;2.60;89.60;;;;;;5056225;28;20100;-77
2020/12/20 04:51:06;;;;;;;123.18;27.42;;;2.50;90.00;;;;;;5056057;28;20028;-77
2020/12/20 04:53:33;;;;;;;108.95;25.05;;;2.60;89.90;;;;;;5056065;28;20029;-77
2020/12/20 04:56:04;;;;;;;124.15;29.33;;;2.60;89.90;;;;;;5056002;28;20067;-77
2020/12/20 04:58:30;;;;;;;100.97;25.73;;;2.50;90.10;;;;;;5054660;28;20049;-77
2020/12/20 05:00:57;;;;;;;93.07;26.65;;;2.50;89.80;;;;;;5055563;28;20112;-77
2020/12/20 05:03:23;;;;;;;115.00;30.13;;;2.50;90.00;;;;;;5055830;28;20032;-77
2020/12/20 05:05:49;;;;;;;108.60;26.48;;;2.50;90.10;;;;;;5056175;28;20029;-77
2020/12/20 05:08:18;;;;;;;103.88;26.25;;;2.60;90.00;;;;;;5055818;28;20025;-77
2020/12/20 05:10:44;;;;;;;139.20;29.15;;;2.60;90.00;;;;;;5055744;28;20027;-77
2020/12/20 05:13:13;;;;;;;169.20;29.83;;;2.50;90.10;;;;;;5055652;28;20032;-78
2020/12/20 05:15:39;;;;;;;87.07;24.17;;;2.50;90.00;;;;;;5054340;28;20040;-78
2020/12/20 05:18:09;;;;;;;148.00;26.63;;;2.60;89.90;;;;;;5053506;28;20021;-78
2020/12/20 05:20:40;;;;;;;121.63;22.83;;;2.60;90.20;;;;;;5054057;28;20033;-78
2020/12/20 05:23:07;;;;;;;135.73;29.48;;;2.60;89.80;;;;;;5055346;28;20044;-78
2020/12/20 05:25:34;;;;;;;126.30;27.77;;;2.60;89.90;;;;;;5054198;28;20486;-78
2020/12/20 05:28:07;;;;;;;175.43;28.48;;;2.60;89.80;;;;;;5055323;28;20045;-78
2020/12/20 05:30:33;;;;;;;150.25;26.23;;;2.60;89.80;;;;;;5055493;28;20061;-78
2020/12/20 05:32:59;;;;;;;252.63;33.40;;;2.70;89.70;;;;;;5055077;28;20057;-78
2020/12/20 05:35:24;;;;;;;239.27;34.72;;;2.70;89.80;;;;;;5055422;28;20029;-77
2020/12/20 05:37:50;;;;;;;373.42;46.17;;;2.60;89.60;;;;;;5054496;28;20021;-78
2020/12/20 05:40:26;;;;;;;386.17;43.40;;;2.60;90.20;;;;;;5054442;28;20035;-78
2020/12/20 05:42:57;;;;;;;358.88;42.85;;;2.50;90.40;;;;;;5053963;28;20013;-78
2020/12/20 05:45:24;;;;;;;317.20;40.03;;;2.50;90.40;;;;;;5054638;28;20559;-79
2020/12/20 05:47:50;;;;;;;219.13;33.38;;;2.50;90.40;;;;;;5054437;28;20471;-78
2020/12/20 05:50:17;;;;;;;386.50;44.65;;;2.50;90.20;;;;;;5055037;28;20099;-79
2020/12/20 05:52:43;;;;;;;413.00;46.95;;;2.50;90.40;;;;;;5053786;28;20052;-79
2020/12/20 05:55:12;;;;;;;200.25;34.47;;;2.50;90.50;;;;;;5054987;28;20025;-79
2020/12/20 05:57:39;;;;;;;215.93;34.55;;;2.50;90.20;;;;;;5054672;28;20106;-79
2020/12/20 06:00:06;;;;;;;138.55;28.08;;;2.50;90.30;;;;;;5054530;28;20057;-79
2020/12/20 06:02:32;;;;;;;194.73;31.27;;;2.50;90.20;;;;;;5054679;28;20025;-79
2020/12/20 06:05:01;;;;;;;150.98;29.67;;;2.60;90.10;;;;;;5053624;28;20135;-79
2020/12/20 06:07:28;;;;;;;146.15;26.55;;;2.60;90.20;;;;;;5053367;28;20393;-79
2020/12/20 06:09:58;;;;;;;130.43;26.77;;;2.60;90.10;;;;;;5054731;28;20475;-79
2020/12/20 06:12:29;;;;;;;142.45;27.33;;;2.60;90.00;;;;;;5054568;28;20028;-79
2020/12/20 06:14:57;;;;;;;213.13;30.20;;;2.60;90.00;;;;;;5054948;28;20463;-79
2020/12/20 06:17:24;;;;;;;105.25;25.40;;;2.70;90.00;;;;;;5053205;28;20041;-79
2020/12/20 06:19:56;;;;;;;205.95;29.90;;;2.60;90.00;;;;;;5054468;28;20021;-78
2020/12/20 06:22:32;;;;;;;116.47;26.83;;;2.70;90.10;;;;;;5054457;28;20045;-79
2020/12/20 06:25:23;;;;;;;274.58;36.35;;;2.70;90.10;;;;;;5054358;28;20021;-79
2020/12/20 06:27:49;;;;;;;131.35;27.40;;;2.60;90.00;;;;;;5053442;28;20024;-79
2020/12/20 06:30:15;;;;;;;259.63;35.35;;;2.60;90.10;;;;;;5052986;28;20029;-79
2020/12/20 06:32:45;;;;;;;115.80;27.50;;;2.60;90.20;;;;;;5054320;28;20175;-79
2020/12/20 06:35:17;;;;;;;120.28;26.42;;;2.60;90.10;;;;;;5054224;28;20025;-79
2020/12/20 06:37:46;;;;;;;105.13;22.88;;;2.60;90.00;;;;;;5054397;28;20044;-79
2020/12/20 06:40:14;;;;;;;252.43;36.47;;;2.70;90.00;;;;;;5052796;28;20479;-78
2020/12/20 06:42:44;;;;;;;179.73;28.75;;;2.60;90.20;;;;;;5053956;28;20040;-79
2020/12/20 06:45:18;;;;;;;132.93;27.75;;;2.60;90.10;;;;;;5052733;28;20025;-78
2020/12/20 06:47:53;;;;;;;156.40;28.70;;;2.60;90.10;;;;;;5053055;28;20025;-78
2020/12/20 06:50:44;;;;;;;119.97;27.60;;;2.60;90.00;;;;;;5052776;28;20582;-78
2020/12/20 06:53:11;;;;;;;194.63;31.33;;;2.60;90.00;;;;;;5054149;28;20029;-78
2020/12/20 06:55:37;;;;;;;126.10;28.35;;;2.60;90.10;;;;;;5053922;28;20029;-79
2020/12/20 06:58:03;;;;;;;128.55;28.23;;;2.60;90.20;;;;;;5051708;28;20036;-79
2020/12/20 07:00:51;;;;;;;263.35;38.35;;;2.60;90.30;;;;;;5053636;28;20044;-79
2020/12/20 07:03:30;;;;;;;196.10;31.20;;;2.60;90.30;;;;;;5052418;28;20025;-79
2020/12/20 07:06:08;;;;;;;97.38;24.77;;;2.60;90.20;;;;;;5054012;28;20017;-79
2020/12/20 07:08:35;;;;;;;137.55;30.33;;;2.60;90.20;;;;;;5053403;28;20028;-79
2020/12/20 07:11:26;;;;;;;148.68;26.85;;;2.70;90.20;;;;;;5053616;28;20024;-79
2020/12/20 07:13:54;;;;;;;158.82;30.08;;;2.70;90.20;;;;;;5053100;28;20037;-79
2020/12/20 07:16:23;;;;;;;114.72;26.88;;;2.70;90.20;;;;;;5053367;28;20028;-78
2020/12/20 07:18:59;;;;;;;187.65;30.90;;;2.70;90.10;;;;;;5053394;28;20036;-79
2020/12/20 07:21:28;;;;;;;304.58;37.50;;;2.70;90.10;;;;;;5052236;28;20025;-79
2020/12/20 07:24:16;;;;;;;164.80;38.00;;;2.80;90.10;;;;;;5051674;28;20029;-79
2020/12/20 07:26:42;;;;;;;277.60;44.05;;;2.70;90.10;;;;;;5053465;28;20477;-78
2020/12/20 07:29:08;;;;;;;306.33;49.90;;;2.80;90.10;;;;;;5053430;28;20029;-78
2020/12/20 07:31:34;;;;;;;136.23;40.95;;;2.70;90.10;;;;;;5053265;28;20024;-79
2020/12/20 07:34:00;;;;;;;153.30;41.40;;;2.80;90.10;;;;;;5053354;28;20021;-79
2020/12/20 07:36:27;;;;;;;139.43;38.90;;;2.80;90.10;;;;;;5052439;28;20382;-79
2020/12/20 07:38:53;;;;;;;108.82;33.28;;;2.80;90.10;;;;;;5051529;28;20096;-78
2020/12/20 07:41:20;;;;;;;80.90;27.40;;;2.90;90.10;;;;;;5050238;28;20079;-78
2020/12/20 07:43:46;;;;;;;92.82;30.40;;;2.90;90.00;;;;;;5053412;28;20104;-79
2020/12/20 07:46:13;;;;;;;89.85;24.98;;;2.90;90.00;;;;;;5053234;28;20021;-79
2020/12/20 07:48:40;;;;;;;71.03;24.30;;;3.00;90.00;;;;;;5053431;28;20021;-79
2020/12/20 07:51:11;;;;;;;96.00;25.75;;;3.00;89.90;;;;;;5052040;28;20155;-79
2020/12/20 07:53:50;;;;;;;78.80;23.33;;;3.10;89.90;;;;;;5052185;28;20021;-79
2020/12/20 07:56:19;;;;;;;94.65;26.67;;;3.00;89.60;;;;;;5053195;28;20098;-79
2020/12/20 07:58:45;;;;;;;72.38;24.92;;;3.00;89.40;;;;;;5053372;28;20044;-79
2020/12/20 08:01:11;;;;;;;350.70;135.23;;;3.00;89.50;;;;;;5053076;28;20479;-79
2020/12/20 08:03:37;;;;;;;182.63;68.82;;;3.00;89.40;;;;;;5053138;28;20070;-79
2020/12/20 08:06:10;;;;;;;94.40;36.22;;;3.00;89.50;;;;;;5052974;28;20049;-79
2020/12/20 08:08:37;;;;;;;84.43;27.80;;;3.00;89.30;;;;;;5053546;28;20375;-79
2020/12/20 08:11:15;;;;;;;90.85;27.38;;;3.10;89.20;;;;;;5056993;28;20071;-78
2020/12/20 08:14:15;;;;;;;122.38;31.63;;;3.00;89.20;;;;;;5055625;28;20042;-78
2020/12/20 08:16:50;;;;;;;107.90;28.13;;;2.80;89.90;;;;;;5055410;28;20542;-79
2020/12/20 08:19:18;;;;;;;116.13;26.10;;;2.80;89.80;;;;;;5056814;28;20036;-79
2020/12/20 08:21:52;;;;;;;105.15;26.85;;;2.90;89.60;;;;;;5055422;28;20021;-79
2020/12/20 08:24:19;;;;;;;88.43;26.08;;;2.80;89.60;;;;;;5056748;28;20031;-79
2020/12/20 08:26:45;;;;;;;96.95;29.05;;;2.80;89.40;;;;;;5056580;28;20028;-79
2020/12/20 08:29:16;;;;;;;63.22;21.77;;;2.90;89.70;;;;;;5055359;28;20487;-79
2020/12/20 08:31:42;;;;;;;103.72;30.48;;;2.90;89.60;;;;;;5056465;28;20029;-78
2020/12/20 08:34:20;;;;;;;116.47;38.45;;;2.90;89.50;;;;;;5055144;28;20033;-78
2020/12/20 08:36:51;;;;;;;83.82;28.17;;;2.90;89.40;;;;;;5056436;28;20028;-78
2020/12/20 08:39:22;;;;;;;102.05;28.52;;;2.90;89.40;;;;;;5055055;28;20048;-79
2020/12/20 08:42:03;;;;;;;129.60;31.13;;;2.90;89.40;;;;;;5055934;28;20025;-77
2020/12/20 08:44:29;;;;;;;119.80;49.60;;;2.90;89.30;;;;;;5035805;28;20034;-77
2020/12/20 08:47:24;;;;;;;94.97;34.22;;;2.80;89.40;;;;;;5036656;28;20032;-77
2020/12/20 08:50:08;;;;;;;122.85;32.50;;;2.80;89.50;;;;;;5031311;28;20038;-77
2020/12/20 08:52:34;;;;;;;120.57;30.77;;;2.80;89.40;;;;;;5035997;28;20018;-77
2020/12/20 08:55:02;;;;;;;171.40;30.65;;;2.80;89.60;;;;;;5034885;28;20029;-77
2020/12/20 08:57:29;;;;;;;72.30;25.08;;;2.80;89.30;;;;;;5035969;28;20031;-78
2020/12/20 09:00:06;;;;;;;81.00;26.75;;;2.80;89.80;;;;;;5035771;28;20077;-78
2020/12/20 09:02:31;;;;;;;94.75;27.30;;;2.90;89.80;;;;;;5045018;28;20021;-77
2020/12/20 09:05:04;;;;;;;70.78;24.88;;;2.90;89.90;;;;;;5055892;28;20074;-77
2020/12/20 09:07:41;;;;;;;62.33;24.67;;;2.90;89.80;;;;;;5056014;28;20021;-77
2020/12/20 09:10:13;;;;;;;78.90;25.55;;;2.90;89.60;;;;;;5056136;28;20032;-77
2020/12/20 09:12:59;;;;;;;63.42;22.88;;;3.00;89.60;;;;;;5055699;28;20363;-78
2020/12/20 09:15:35;;;;;;;78.82;25.40;;;3.00;89.60;;;;;;5055581;28;20066;-77
2020/12/20 09:18:19;;;;;;;63.28;24.17;;;3.10;89.70;;;;;;5055562;28;20032;-77
2020/12/20 09:20:45;;;;;;;70.72;23.10;;;3.10;89.50;;;;;;5054596;28;20029;-77
2020/12/20 09:23:22;;;;;;;77.32;23.20;;;3.10;89.50;;;;;;5054169;28;20112;-77
2020/12/20 09:25:48;;;;;;;81.40;22.38;;;3.10;89.30;;;;;;5055538;28;20025;-77
2020/12/20 09:28:24;;;;;;;70.93;23.05;;;3.10;89.10;;;;;;5055554;28;20107;-77
2020/12/20 09:30:55;;;;;;;61.28;20.08;;;3.10;89.10;;;;;;5055623;28;20048;-77
2020/12/20 09:33:22;;;;;;;;;;;3.10;88.90;;;;;;5056361;28;20052;-78
2020/12/20 09:36:11;;;;;;;;;;;3.10;89.60;;;;;;5055671;28;19987;-77
2020/12/20 09:38:44;;;;;;;;;;;2.90;90.00;;;;;;5055715;28;19912;-77
2020/12/20 09:41:12;;;;;;;;;;;3.00;90.00;;;;;;5054047;28;20282;-77
2020/12/20 09:43:37;;;;;;;;;;;3.00;90.00;;;;;;5055596;28;19904;-77
2020/12/20 09:46:03;;;;;;;;;;;3.00;89.80;;;;;;5055600;28;19905;-77
2020/12/20 09:48:29;;;;;;;;;;;3.10;89.30;;;;;;5055346;28;20003;-77
2020/12/20 09:50:55;;;;;;;;;;;3.10;89.40;;;;;;5055363;28;19954;-77
2020/12/20 09:53:21;;;;;;;;;;;3.10;89.70;;;;;;5054196;28;20335;-77
2020/12/20 09:55:46;;;;;;;;;;;3.00;89.60;;;;;;5055600;28;19958;-77
2020/12/20 09:58:13;;;;;;;;;;;3.00;89.70;;;;;;5055360;28;19917;-77
2020/12/20 10:00:38;;;;;;;;;;;3.00;89.70;;;;;;5053651;28;20393;-77
2020/12/20 10:03:04;;;;;;;;;;;3.00;89.60;;;;;;5053904;28;19904;-77
2020/12/20 10:05:30;;;;;;;;;;;3.10;89.50;;;;;;5053624;28;19911;-77
2020/12/20 10:07:55;;;;;;;;;;;3.10;89.50;;;;;;5055233;28;20279;-77
2020/12/20 10:10:21;;;;;;;;;;;3.10;89.20;;;;;;5053828;28;19909;-77
2020/12/20 10:12:47;;;;;;;;;;;3.10;88.80;;;;;;5053905;28;19904;-77
2020/12/20 10:15:12;;;;;;;;;;;3.10;88.70;;;;;;5053741;28;19911;-77
2020/12/20 10:17:38;;;;;;;;;;;3.10;88.60;;;;;;5054769;28;19909;-77
2020/12/20 10:20:03;;;;;;;;;;;3.00;88.90;;;;;;5054856;28;20255;-77
2020/12/20 10:22:29;;;;;;;;;;;3.00;89.30;;;;;;5054751;28;19962;-77
2020/12/20 10:24:55;;;;;;;;;;;3.10;89.40;;;;;;5054665;28;19909;-77
2020/12/20 10:27:20;;;;;;;;;;;3.10;89.10;;;;;;5053273;28;19971;-77
2020/12/20 10:29:47;;;;;;;;;;;3.10;89.00;;;;;;5054780;28;19905;-76
2020/12/20 10:32:13;;;;;;;;;;;3.00;89.00;;;;;;5054640;28;19970;-77
2020/12/20 10:34:38;;;;;;;;;;;3.00;89.20;;;;;;5054956;28;19938;-76
2020/12/20 10:37:04;;;;;;;;;;;3.00;89.00;;;;;;5054504;28;19904;-77
2020/12/20 10:39:29;;;;;;;;;;;3.10;88.80;;;;;;5053332;28;19918;-77
2020/12/20 10:41:55;;;;;;;;;;;3.10;88.50;;;;;;5054915;28;20343;-77
2020/12/20 10:44:22;;;;;;;;;;;3.10;88.10;;;;;;5052327;28;19908;-76
2020/12/20 10:46:51;;;;;;;;;;;3.10;87.90;;;;;;5054492;28;19908;-77
2020/12/20 10:49:17;;;;;;;;;;;3.20;87.40;;;;;;5053077;28;19905;-76
2020/12/20 10:51:43;;;;;;;;;;;3.20;87.20;;;;;;5054476;28;19912;-77
2020/12/20 10:54:09;;;;;;;;;;;3.30;86.70;;;;;;5054159;28;20270;-77
2020/12/20 10:56:34;;;;;;;;;;;3.30;86.70;;;;;;5054037;28;19905;-76
2020/12/20 10:59:00;;;;;;;;;;;3.30;86.00;;;;;;5053663;28;19923;-77
2020/12/20 11:01:25;;;;;;;;;;;3.30;86.30;;;;;;5053504;28;20043;-77
2020/12/20 11:03:52;;;;;;;;;;;3.30;86.60;;;;;;5054065;28;19920;-77
2020/12/20 11:06:18;;;;;;;;;;;3.40;86.20;;;;;;5052664;28;19908;-77
2020/12/20 11:08:44;;;;;;;;;;;3.40;86.50;;;;;;5053901;28;19935;-77
2020/12/20 11:11:10;;;;;;;;;;;3.40;86.70;;;;;;5053590;28;20343;-76
2020/12/20 11:13:38;;;;;;;;;;;3.40;86.30;;;;;;5053656;28;19939;-76
2020/12/20 11:16:04;;;;;;;;;;;3.50;86.10;;;;;;5053865;28;19987;-77
2020/12/20 11:18:29;;;;;;;;;;;3.40;85.40;;;;;;5053871;28;19943;-77
2020/12/20 11:20:55;;;;;;;;;;;3.30;86.10;;;;;;5053605;28;19909;-77
2020/12/20 11:23:21;;;;;;;;;;;3.40;86.20;;;;;;5053749;28;19904;-76
2020/12/20 11:25:46;;;;;;;;;;;3.40;85.90;;;;;;5053520;28;20358;-76
2020/12/20 11:28:12;;;;;;;;;;;3.40;85.60;;;;;;5053909;28;19904;-76
2020/12/20 11:30:37;;;;;;;;;;;3.40;85.30;;;;;;5053854;28;20007;-77
2020/12/20 11:33:03;;;;;;;;;;;3.40;85.20;;;;;;5054067;28;20343;-76
2020/12/20 11:35:28;;;;;;;;;;;3.40;85.30;;;;;;5053913;28;19904;-77
2020/12/20 11:37:54;;;;;;;;;;;3.30;85.40;;;;;;5053633;28;20437;-77
2020/12/20 11:40:19;;;;;;;;;;;3.40;85.70;;;;;;5052235;28;19931;-76
2020/12/20 11:42:45;;;;;;;;;;;3.40;85.40;;;;;;5053714;28;19911;-77
2020/12/20 11:45:11;;;;;;;;;;;3.30;85.50;;;;;;5055864;28;19955;-77
2020/12/20 11:47:39;;;;;;;;;;;3.20;85.50;;;;;;5057568;28;20365;-76
2020/12/20 11:50:05;;;;;;;;;;;3.20;85.80;;;;;;5056092;28;19909;-77
2020/12/20 11:52:33;;;;;;;;;;;3.20;85.60;;;;;;5057470;28;19905;-75
2020/12/20 11:54:59;;;;;;;;;;;3.20;85.50;;;;;;5057234;28;19927;-76
2020/12/20 11:57:25;;;;;;;;;;;3.10;85.70;;;;;;5057310;28;20343;-76
2020/12/20 11:59:51;;;;;;;;;;;3.10;85.80;;;;;;5057015;28;19927;-77
2020/12/20 12:02:16;;;;;;;;;;;3.10;85.90;;;;;;5056041;28;19995;-76
2020/12/20 12:04:42;;;;;;;;;;;3.10;85.80;;;;;;5057300;28;19947;-77
2020/12/20 12:07:07;;;;;;;;;;;3.10;86.00;;;;;;5055860;28;19909;-76
2020/12/20 12:09:33;;;;;;;;;;;3.10;85.90;;;;;;5057019;28;19955;-76
2020/12/20 12:11:58;;;;;;;;;;;3.10;85.90;;;;;;5056844;28;19912;-76
2020/12/20 12:14:24;;;;;;;;;;;3.10;86.40;;;;;;5057138;28;19944;-77
2020/12/20 12:16:50;;;;;;;;;;;3.10;86.30;;;;;;5056797;28;19905;-76
2020/12/20 12:19:15;;;;;;;;;;;3.00;86.40;;;;;;5057042;28;19905;-77
2020/12/20 12:21:41;;;;;;;;;;;3.00;86.50;;;;;;5056817;28;19919;-77
2020/12/20 12:24:06;;;;;;;;;;;3.00;86.60;;;;;;5056647;28;19953;-77
2020/12/20 12:26:32;;;;;;;;;;;3.00;86.80;;;;;;5059453;28;19904;-77
2020/12/20 12:28:58;;;;;;;;;;;3.00;86.90;;;;;;5076539;28;19908;-77
2020/12/20 12:31:23;;;;;;;;;;;3.00;87.30;;;;;;5076523;28;19943;-76
2020/12/20 12:33:49;;;;;;;;;;;2.90;87.80;;;;;;5075285;28;19904;-77
2020/12/20 12:36:14;;;;;;;;;;;2.90;88.00;;;;;;5076419;28;19911;-77
2020/12/20 12:38:40;;;;;;;;;;;2.90;87.90;;;;;;5057301;28;19911;-77
2020/12/20 12:41:05;;;;;;;;;;;2.90;88.10;;;;;;5056251;28;19913;-77
2020/12/20 12:43:31;;;;;;;;;;;2.90;87.70;;;;;;5054832;28;19999;-77
2020/12/20 12:45:56;;;;;;;;;;;2.90;87.90;;;;;;5056717;28;19912;-75
2020/12/20 12:48:22;;;;;;;;;;;2.90;88.10;;;;;;5056947;28;20278;-75
2020/12/20 12:50:47;;;;;;;;;;;2.80;87.90;;;;;;5057258;28;19927;-75
2020/12/20 12:53:13;;;;;;;;;;;2.80;88.00;;;;;;5056468;28;19905;-75
2020/12/20 12:55:39;;;;;;;;;;;2.80;87.90;;;;;;5055296;28;20347;-75
2020/12/20 12:58:05;;;;;;;;;;;2.80;87.90;;;;;;5056288;28;19904;-75
2020/12/20 13:00:30;;;;;;;;;;;2.80;88.30;;;;;;5055941;28;19963;-75